Latest Weather Observations for Mudgee

IDN60801

Issued at 4:03 am EST Saturday 30 May 2015 (issued every 30 minutes, with the page automatically refreshed every 10 minutes)

About weather observations | Map of weather stations | Latest weather observations for NSW | Other Formats
Station Details ID: 062101 Name: MUDGEE AIRPORT AWS Lat: -32.56 Lon: 149.61 Height: 471.0 m
Data from the previous 72 hours. | See also: Recent months at Mudgee
Date/Time
EST
Temp
°C
App
Temp
°C
Dew
Point
Rel
Hum
%
Delta-T
°C
Wind Press
QNH
hPa
Press
MSL
hPa
Rain
since 9 am
mm
Dir
 
Spd
km/h
Gust
km/h
Spd
kts
Gust
kts
30/04:00am 7.2 6.5 7.1 99 0.0 CALM 0 0 0 0 1023.4 1023.4 0.6
30/03:30am 7.6 7.0 7.5 99 0.0 CALM 0 0 0 0 1023.3 1023.3 0.6
30/03:00am 7.7 7.1 7.6 99 0.0 CALM 0 0 0 0 1023.7 1023.7 0.4
30/02:30am 7.3 6.7 7.2 99 0.0 CALM 0 0 0 0 1023.7 1023.7 0.4
30/02:00am 7.7 7.1 7.6 99 0.0 CALM 0 0 0 0 1024.0 1023.9 0.4
30/01:30am 7.9 7.4 7.8 99 0.0 CALM 0 6 0 3 1023.9 1023.8 0.4
30/01:29am 7.9 7.4 7.8 99 0.0 CALM 0 6 0 3 1024.0 1023.9 0.4
30/01:00am 8.1 7.6 8.0 99 0.0 CALM 0 0 0 0 1024.0 1023.9 0.4
30/12:30am 8.7 8.4 8.6 99 0.0 CALM 0 0 0 0 1024.1 1024.0 0.4
30/12:00am 8.7 8.4 8.6 99 0.0 CALM 0 0 0 0 1024.3 1024.3 0.4
 
Date/Time
EST
Temp
°C
App
Temp
°C
Dew
Point
Rel
Hum
%
Delta-T
°C
Wind Press
QNH
hPa
Press
MSL
hPa
Rain
since 9 am
mm
Dir
 
Spd
km/h
Gust
km/h
Spd
kts
Gust
kts
29/11:30pm 8.7 7.1 8.6 99 0.0 NNE 7 7 4 4 1024.4 1024.4 0.4
29/11:00pm 8.5 8.1 8.4 99 0.0 CALM 0 0 0 0 1024.7 1024.7 0.4
29/10:30pm 8.9 8.6 8.8 99 0.1 CALM 0 0 0 0 1024.5 1024.5 0.4
29/10:00pm 9.0 8.4 8.9 99 0.0 ENE 2 6 1 3 1024.5 1024.5 0.4
29/09:30pm 9.1 8.8 8.8 98 0.2 CALM 0 0 0 0 1024.3 1024.3 0.4
29/09:00pm 9.1 8.8 8.8 98 0.1 CALM 0 0 0 0 1024.4 1024.4 0.4
29/08:30pm 9.8 8.0 9.5 98 0.2 NE 9 11 5 6 1024.2 1024.1 0.4
29/08:00pm 10.2 9.5 9.9 98 0.2 ENE 4 7 2 4 1024.1 1024.0 0.4
29/07:30pm 10.3 10.4 10.0 98 0.2 CALM 0 0 0 0 1024.0 1023.9 0.4
29/07:00pm 11.0 10.5 10.7 98 0.2 NNE 4 7 2 4 1024.1 1024.0 0.4
29/06:30pm 12.5 12.9 11.1 91 0.7 CALM 0 0 0 0 1023.9 1023.8 0.4
29/06:00pm 13.1 12.3 11.7 91 0.8 NE 7 9 4 5 1023.3 1023.3 0.4
29/05:30pm 12.6 11.6 11.0 90 0.9 N 7 9 4 5 1023.1 1023.1 0.4
29/05:00pm 14.0 13.1 10.6 80 1.8 W 6 9 3 5 1022.8 1022.8 0.4
29/04:30pm 15.8 15.2 12.4 80 1.9 W 7 9 4 5 1022.7 1022.7 0.4
29/04:00pm 15.4 14.5 12.5 83 1.6 W 9 11 5 6 1022.5 1022.5 0.4
29/03:30pm 15.4 13.7 12.3 82 1.7 W 13 17 7 9 1022.5 1022.5 0.4
29/03:02pm 15.3 13.1 12.1 81 1.8 WSW 15 19 8 10 1022.2 1022.1 0.4
29/03:00pm 15.3 12.7 12.1 81 1.8 WSW 17 19 9 10 1022.2 1022.1 0.4
29/02:30pm 15.8 15.0 14.0 89 1.0 WNW 11 15 6 8 1021.9 1021.8 0.4
29/02:16pm 15.8 14.4 13.5 86 1.3 NW 13 19 7 10 1021.9 1021.8 0.4
29/02:00pm 15.9 14.5 14.4 91 0.9 NNW 15 20 8 11 1021.9 1021.8 0.4
29/01:45pm 15.7 14.3 14.4 92 0.8 NW 15 17 8 9 1022.1 1022.0 0.4
29/01:30pm 15.3 14.8 15.0 98 0.2 NW 11 13 6 7 1022.3 1022.2 0.4
29/01:00pm 15.4 14.9 14.8 96 0.4 WNW 11 15 6 8 1022.3 1022.2 0.4
29/12:30pm 15.6 13.4 13.3 86 1.3 WNW 17 22 9 12 1022.7 1022.7 0.0
29/12:00pm 16.1 14.1 13.8 86 1.3 WNW 17 24 9 13 1022.6 1022.6 0.0
29/11:30am 15.0 13.6 14.5 97 0.3 N 15 20 8 11 1023.1 1023.1 0.0
29/11:00am 14.9 13.5 14.6 98 0.2 NNW 15 20 8 11 1023.5 1023.5 0.0
29/10:30am 14.5 13.0 14.2 98 0.2 NNW 15 19 8 10 1023.9 1023.8 0.0
29/10:00am 14.6 13.1 14.3 98 0.2 NW 15 19 8 10 1023.9 1023.8 0.0
29/09:30am 14.0 12.7 13.8 99 0.1 NW 13 17 7 9 1024.0 1023.9 0.0
29/09:00am 13.6 12.2 13.4 99 0.1 NNW 13 17 7 9 1023.4 1023.4 2.6
29/08:30am 13.3 11.8 13.1 99 0.1 NNW 13 19 7 10 1023.4 1023.4 2.6
29/08:00am 12.9 12.0 12.7 99 0.1 N 9 13 5 7 1023.6 1023.6 2.4
29/07:30am 12.7 11.4 12.5 99 0.1 N 11 15 6 8 1023.2 1023.2 2.4
29/07:00am 12.7 11.0 12.5 99 0.1 NNW 13 15 7 8 1023.2 1023.2 2.2
29/06:30am 12.9 11.3 12.7 99 0.1 NW 13 19 7 10 1023.1 1023.1 1.8
29/06:10am 12.9 11.6 12.6 98 0.2 NNW 11 15 6 8 1022.8 1022.8 1.6
29/06:00am 12.8 11.1 12.5 98 0.2 NNW 13 19 7 10 1022.5 1022.5 1.4
29/05:37am 12.8 11.1 12.5 98 0.2 NNW 13 20 7 11 1022.4 1022.3 1.4
29/05:30am 13.0 11.0 12.7 98 0.2 NNW 15 20 8 11 1022.3 1022.2 1.2
29/05:00am 13.2 10.9 12.9 98 0.2 NW 17 22 9 12 1022.2 1022.1 1.0
29/04:30am 13.2 10.5 12.9 98 0.2 NNW 19 24 10 13 1021.9 1021.8 1.0
29/04:00am 12.8 12.3 12.6 99 0.1 N 7 13 4 7 1022.2 1022.1 1.0
29/03:49am 12.5 13.2 12.3 99 0.1 CALM 0 0 0 0 1022.3 1022.2 1.0
29/03:30am 12.3 11.6 12.1 99 0.1 N 7 9 4 5 1022.2 1022.1 1.0
29/03:00am 12.2 11.1 12.0 99 0.1 SW 9 13 5 7 1022.2 1022.1 1.0
29/02:30am 12.1 10.2 11.9 99 0.1 NNE 13 15 7 8 1021.8 1021.7 1.0
29/02:00am 12.1 12.7 11.9 99 0.1 CALM 0 9 0 5 1022.6 1022.6 0.8
29/01:30am 12.2 12.8 12.0 99 0.1 CALM 0 0 0 0 1022.3 1022.2 0.8
29/01:00am 12.2 12.8 12.0 99 0.1 CALM 0 2 0 1 1022.4 1022.3 0.8
29/12:30am 12.2 10.7 12.0 99 0.1 NE 11 11 6 6 1022.5 1022.5 0.8
29/12:00am 12.1 11.4 11.9 99 0.1 NE 7 9 4 5 1022.8 1022.8 0.8
 
Date/Time
EST
Temp
°C
App
Temp
°C
Dew
Point
Rel
Hum
%
Delta-T
°C
Wind Press
QNH
hPa
Press
MSL
hPa
Rain
since 9 am
mm
Dir
 
Spd
km/h
Gust
km/h
Spd
kts
Gust
kts
28/11:30pm 12.6 13.0 12.4 99 0.1 ESE 2 7 1 4 1023.2 1023.2 0.8
28/11:00pm 12.4 13.1 12.1 98 0.2 CALM 0 0 0 0 1023.3 1023.3 0.6
28/10:30pm 12.6 13.3 12.3 98 0.2 CALM 0 6 0 3 1023.3 1023.3 0.6
28/10:00pm 12.4 12.3 12.1 98 0.2 NE 4 6 2 3 1023.3 1023.3 0.4
28/09:30pm 12.4 11.9 12.1 98 0.2 NNE 6 7 3 4 1023.3 1023.3 0.4
28/09:00pm 12.4 13.1 12.1 98 0.2 CALM 0 0 0 0 1023.3 1023.3 0.4
28/08:30pm 12.2 12.4 11.9 98 0.2 N 2 6 1 3 1023.4 1023.4 0.4
28/08:00pm 12.2 11.1 11.9 98 0.2 NNE 9 11 5 6 1023.3 1023.3 0.4
28/07:30pm 12.3 11.6 12.0 98 0.2 NNE 7 9 4 5 1023.4 1023.4 0.4
28/07:00pm 13.1 12.3 12.8 98 0.2 NNE 9 11 5 6 1023.4 1023.4 0.4
28/06:30pm 13.5 12.7 13.0 97 0.3 NE 9 11 5 6 1022.9 1022.9 0.4
28/06:00pm 12.8 11.5 11.4 91 0.8 NNE 9 9 5 5 1023.0 1023.0 0.4
28/05:30pm 14.9 13.9 12.4 85 1.4 NE 9 9 5 5 1022.6 1022.6 0.4
28/05:00pm 14.8 14.3 12.7 87 1.2 N 7 9 4 5 1022.9 1022.9 0.4
28/04:30pm 15.4 14.8 12.3 82 1.7 NNW 7 9 4 5 1022.8 1022.8 0.4
28/04:00pm 15.7 13.9 12.1 79 2.0 NW 13 15 7 8 1022.8 1022.8 0.4
28/03:30pm 15.8 15.2 12.4 80 1.9 WNW 7 13 4 7 1022.5 1022.5 0.4
28/03:00pm 15.8 14.5 12.5 81 1.8 NNW 11 15 6 8 1022.6 1022.6 0.4
28/02:30pm 15.6 14.7 12.5 82 1.7 NNW 9 11 5 6 1022.7 1022.7 0.4
28/02:00pm 15.6 14.2 12.2 80 1.9 N 11 13 6 7 1022.7 1022.7 0.4
28/01:30pm 15.5 14.1 12.3 81 1.8 NNW 11 17 6 9 1022.9 1022.9 0.4
28/01:00pm 15.4 15.0 12.9 85 1.4 NNW 7 13 4 7 1023.3 1023.3 0.4
28/12:35pm 14.8 15.4 13.0 89 1.0 NNE 2 7 1 4 1023.7 1023.7 0.4
28/12:30pm 14.9 15.6 13.3 90 0.9 ENE 2 6 1 3 1023.9 1023.8 0.4
28/12:00pm 13.5 14.1 13.0 97 0.3 W 2 7 1 4 1024.3 1024.3 0.4
28/11:48am 13.4 14.4 13.1 98 0.2 CALM 0 0 0 0 1024.5 1024.5 0.4
28/11:47am 13.4 14.4 13.1 98 0.2 CALM 0 0 0 0 1024.5 1024.5 0.4
28/11:30am 12.5 13.2 12.2 98 0.2 CALM 0 0 0 0 1024.7 1024.7 0.4
28/11:00am 12.3 12.9 12.0 98 0.2 CALM 0 0 0 0 1025.1 1025.1 0.0
28/10:30am 11.7 12.1 11.4 98 0.2 CALM 0 0 0 0 1025.3 1025.3 0.0
28/10:00am 11.3 11.6 11.0 98 0.2 CALM 0 0 0 0 1025.5 1025.5 0.0
28/09:56am 11.4 11.4 11.1 98 0.2 SSW 2 6 1 3 1025.5 1025.5 0.0
28/09:42am 11.1 11.0 10.8 98 0.2 S 2 7 1 4 1025.4 1025.4 0.0
28/09:30am 11.0 11.2 10.7 98 0.2 CALM 0 0 0 0 1025.4 1025.4 0.0
28/09:00am 11.0 10.5 10.7 98 0.2 N 4 7 2 4 1025.3 1025.3 0.2
28/08:30am 11.2 11.1 10.7 97 0.3 ENE 2 6 1 3 1025.0 1025.0 0.0
28/08:00am 10.8 9.9 10.5 98 0.2 SSW 6 7 3 4 1025.0 1025.0 0.0
28/07:30am 10.6 10.7 10.3 98 0.2 CALM 0 0 0 0 1024.6 1024.6 0.0
28/07:28am 10.6 10.7 10.3 98 0.2 CALM 0 0 0 0 1024.5 1024.5 0.0
28/07:00am 10.4 10.5 10.1 98 0.2 CALM 0 0 0 0 1024.4 1024.4 0.0
28/06:30am 10.3 10.4 10.0 98 0.2 CALM 0 0 0 0 1024.4 1024.4 0.0
28/06:00am 10.2 10.2 9.9 98 0.2 CALM 0 0 0 0 1024.2 1024.1 0.0
28/05:30am 10.1 9.3 9.8 98 0.2 NNW 4 7 2 4 1023.7 1023.7 0.0
28/05:00am 10.3 10.4 10.0 98 0.2 CALM 0 0 0 0 1023.4 1023.4 0.0
28/04:30am 10.3 10.4 10.0 98 0.2 CALM 0 0 0 0 1023.5 1023.5 0.0
28/04:00am 10.4 9.7 10.1 98 0.2 ESE 4 7 2 4 1023.5 1023.5 0.0
28/03:30am 10.3 9.2 10.0 98 0.2 S 6 7 3 4 1023.4 1023.4 0.0
28/03:00am 10.1 10.1 9.8 98 0.2 CALM 0 0 0 0 1023.6 1023.6 0.0
28/02:30am 9.9 9.8 9.6 98 0.2 CALM 0 0 0 0 1023.9 1023.8 0.0
28/02:00am 9.7 9.2 9.4 98 0.2 NNE 2 6 1 3 1023.7 1023.7 0.0
28/01:30am 9.7 7.9 9.4 98 0.2 NNE 9 11 5 6 1023.9 1023.8 0.0
28/01:00am 10.1 10.1 9.8 98 0.2 CALM 0 0 0 0 1024.2 1024.1 0.0
28/12:30am 9.8 9.7 9.5 98 0.2 CALM 0 0 0 0 1024.3 1024.3 0.0
28/12:00am 9.9 9.8 9.6 98 0.2 CALM 0 0 0 0 1024.5 1024.5 0.0
 
Date/Time
EST
Temp
°C
App
Temp
°C
Dew
Point
Rel
Hum
%
Delta-T
°C
Wind Press
QNH
hPa
Press
MSL
hPa
Rain
since 9 am
mm
Dir
 
Spd
km/h
Gust
km/h
Spd
kts
Gust
kts
27/11:30pm 10.0 10.0 9.7 98 0.2 CALM 0 0 0 0 1024.6 1024.6 0.0
27/11:00pm 10.0 8.6 9.7 98 0.2 NE 7 9 4 5 1024.6 1024.6 0.0
27/10:30pm 9.7 8.4 9.2 97 0.3 NE 6 7 3 4 1024.5 1024.5 0.0
27/10:00pm 10.1 10.0 9.5 96 0.3 CALM 0 0 0 0 1024.5 1024.5 0.0
27/09:30pm 10.1 10.0 9.3 95 0.4 CALM 0 0 0 0 1024.5 1024.5 0.0
27/09:00pm 10.1 9.8 8.7 91 0.7 CALM 0 6 0 3 1024.4 1024.4 0.0
27/08:30pm 10.9 10.7 9.2 89 0.9 CALM 0 6 0 3 1024.6 1024.6 0.0
27/08:00pm 10.9 9.5 9.5 91 0.7 ENE 7 11 4 6 1024.5 1024.5 0.0
27/07:30pm 10.7 8.8 9.1 90 0.8 NNE 9 11 5 6 1024.4 1024.4 0.0
27/07:00pm 11.2 9.9 9.1 87 1.1 ENE 6 9 3 5 1024.2 1024.1 0.0
27/06:30pm 11.1 9.2 9.0 87 1.1 NE 9 11 5 6 1024.0 1023.9 0.0
27/06:00pm 12.6 12.2 8.1 74 2.3 CALM 0 0 0 0 1023.9 1023.8 0.0
27/05:30pm 12.7 11.2 8.4 75 2.2 WNW 6 7 3 4 1023.9 1023.8 0.0
27/05:00pm 13.6 13.1 7.8 68 2.9 CALM 0 0 0 0 1023.5 1023.5 0.0
27/04:30pm 14.0 12.3 8.2 68 3.0 WNW 7 13 4 7 1023.3 1023.3 0.0
27/04:00pm 14.7 12.0 7.5 62 3.6 WNW 11 15 6 8 1023.3 1023.3 0.0
27/03:30pm 15.2 13.0 7.7 61 3.8 W 9 13 5 7 1023.2 1023.2 0.0
27/03:00pm 15.4 12.3 7.2 58 4.1 W 13 17 7 9 1023.4 1023.4 0.0
27/02:30pm 16.3 13.4 8.3 59 4.2 WNW 13 17 7 9 1023.6 1023.6 0.0
27/02:00pm 15.5 13.5 8.5 63 3.6 NW 9 13 5 7 1024.0 1023.9 0.0
27/01:30pm 15.5 13.1 8.5 63 3.6 NNW 11 17 6 9 1024.1 1024.0 0.0
27/01:00pm 15.2 13.0 8.0 62 3.7 NW 9 17 5 9 1024.6 1024.6 0.0
27/12:30pm 14.7 13.1 8.0 64 3.4 NW 6 9 3 5 1024.8 1024.8 0.0
27/12:00pm 14.0 12.3 7.5 65 3.3 WSW 6 9 3 5 1025.2 1025.2 0.0
27/11:30am 13.6 12.2 8.7 72 2.5 WNW 6 13 3 7 1025.8 1025.8 0.0
27/11:00am 12.7 12.0 10.1 84 1.4 ENE 4 7 2 4 1026.3 1026.3 0.0
27/10:30am 10.1 9.0 9.9 99 0.1 WNW 6 9 3 5 1026.8 1026.8 0.0
27/10:18am 9.3 9.1 9.2 99 0.1 CALM 0 2 0 1 1026.8 1026.8 0.0
27/10:00am 8.7 8.0 8.6 99 0.0 WNW 2 7 1 4 1026.6 1026.6 0.0
27/09:30am 7.3 5.5 7.2 99 0.0 N 6 7 3 4 1026.5 1026.5 0.0
27/09:00am 6.3 5.0 6.2 99 0.0 S 2 6 1 3 1026.5 1026.5 0.0
27/08:30am 5.2 3.3 5.1 99 0.0 S 4 7 2 4 1026.2 1026.2 0.0
27/08:00am 4.0 2.6 3.7 98 0.1 CALM 0 0 0 0 1025.9 1025.9 0.0
27/07:30am 3.7 2.3 3.4 98 0.1 CALM 0 0 0 0 1025.9 1025.9 0.0
27/07:00am 3.3 1.8 3.0 98 0.1 CALM 0 0 0 0 1025.8 1025.8 0.0
27/06:30am 4.0 0.9 3.7 98 0.1 NE 9 11 5 6 1025.2 1025.2 0.0
27/06:00am 4.6 3.0 4.3 98 0.1 ESE 2 7 1 4 1025.4 1025.4 0.0
27/05:30am 4.6 2.6 4.3 98 0.1 ENE 4 7 2 4 1025.0 1025.0 0.0
27/05:19am 4.2 2.9 3.9 98 0.1 CALM 0 0 0 0 1025.1 1025.1 0.0
27/05:09am 4.1 2.7 3.8 98 0.1 CALM 0 7 0 4 1025.1 1025.1 0.0
27/05:00am 4.0 0.9 3.7 98 0.1 NE 9 11 5 6 1024.9 1024.9 0.0
27/04:30am 3.7 1.9 3.4 98 0.1 ENE 2 6 1 3 1025.2 1025.2 0.0

Other Formats:

Comma delimited format used in spreadsheet applications
http://www.bom.gov.au/fwo/IDN60801/IDN60801.94727.axf

JavaScript Object Notation format (JSON) in row-major order
http://www.bom.gov.au/fwo/IDN60801/IDN60801.94727.json